Time;durP1;ratioP1;P1;durP2;ratioP2;P2;SDS_P1;SDS_P2;PMS_P1;PMS_P2;Temp;Humidity;BMP_temperature;BMP_pressure;BME280_temperature;BME280_humidity;BME280_pressure;Samples;Min_cycle;Max_cycle;Signal;HPM_P1;HPM_P2
2023/03/10 00:00:07;;;;;;;3.08;0.82;;;11.20;99.90;;;;;;5094857;28;20027;-66
2023/03/10 00:02:33;;;;;;;9.32;1.10;;;11.20;99.90;;;;;;5078503;28;20016;-66
2023/03/10 00:05:01;;;;;;;4.97;1.23;;;11.20;99.90;;;;;;5078463;28;20082;-66
2023/03/10 00:07:26;;;;;;;7.10;1.73;;;11.20;99.90;;;;;;5094906;28;20024;-66
2023/03/10 00:09:52;;;;;;;6.38;1.08;;;11.20;99.90;;;;;;5077997;28;20032;-66
2023/03/10 00:12:17;;;;;;;10.80;1.10;;;11.20;99.90;;;;;;5077817;28;20044;-66
2023/03/10 00:14:43;;;;;;;4.90;0.85;;;11.10;99.90;;;;;;5078293;28;20028;-66
2023/03/10 00:17:08;;;;;;;4.75;1.17;;;11.20;99.90;;;;;;5078346;28;20025;-66
2023/03/10 00:19:34;;;;;;;4.95;1.33;;;11.20;99.90;;;;;;5094088;28;20029;-66
2023/03/10 00:22:01;;;;;;;3.60;0.80;;;11.20;99.90;;;;;;5077536;28;20031;-67
2023/03/10 00:24:27;;;;;;;4.15;1.25;;;11.20;99.90;;;;;;5095071;28;20042;-67
2023/03/10 00:26:52;;;;;;;2.25;0.82;;;11.30;99.90;;;;;;5078297;28;20020;-66
2023/03/10 00:29:18;;;;;;;2.60;0.60;;;11.30;99.90;;;;;;5094053;28;20016;-66
2023/03/10 00:31:44;;;;;;;3.50;0.70;;;11.40;99.90;;;;;;5094008;28;20082;-63
2023/03/10 00:34:11;;;;;;;4.95;1.00;;;11.40;99.90;;;;;;5078031;28;20020;-63
2023/03/10 00:36:36;;;;;;;1.33;0.60;;;11.40;99.90;;;;;;5093961;28;20043;-63
2023/03/10 00:39:04;;;;;;;5.38;0.65;;;11.50;99.90;;;;;;5077826;28;20021;-64
2023/03/10 00:41:35;;;;;;;0.90;0.68;;;11.50;99.90;;;;;;5093991;28;20016;-63
2023/03/10 00:44:02;;;;;;;2.75;0.52;;;11.50;99.90;;;;;;5077951;28;20016;-63
2023/03/10 00:46:28;;;;;;;0.70;0.50;;;11.50;99.90;;;;;;5093732;28;20031;-63
2023/03/10 00:48:54;;;;;;;3.95;0.70;;;11.50;99.90;;;;;;5077618;28;20021;-63
2023/03/10 00:51:20;;;;;;;1.45;0.63;;;11.60;99.90;;;;;;5093372;28;20032;-63
2023/03/10 00:53:47;;;;;;;2.00;0.47;;;11.60;99.90;;;;;;5078190;28;20039;-64
2023/03/10 00:56:13;;;;;;;1.88;0.60;;;11.70;99.90;;;;;;5077490;28;20032;-63
2023/03/10 00:58:39;;;;;;;6.75;0.80;;;11.70;99.90;;;;;;5077394;28;20024;-65
2023/03/10 01:01:16;;;;;;;3.55;0.77;;;11.70;99.90;;;;;;5093433;28;20029;-66
2023/03/10 01:03:42;;;;;;;4.00;1.10;;;11.70;99.90;;;;;;5093918;28;20017;-66
2023/03/10 01:06:08;;;;;;;2.45;0.60;;;11.70;99.90;;;;;;5093403;28;20043;-66
2023/03/10 01:08:33;;;;;;;1.25;0.80;;;11.70;99.90;;;;;;5093576;28;20021;-66
2023/03/10 01:10:59;;;;;;;1.65;0.38;;;11.70;99.90;;;;;;5093835;28;20119;-66
2023/03/10 01:13:24;;;;;;;1.20;0.68;;;11.70;99.90;;;;;;5076322;28;20025;-63
2023/03/10 01:15:50;;;;;;;1.90;0.70;;;11.70;99.90;;;;;;5077324;28;20032;-63
2023/03/10 01:18:18;;;;;;;2.35;0.55;;;11.70;99.90;;;;;;5093425;28;20020;-63
2023/03/10 01:20:44;;;;;;;1.50;0.50;;;11.70;99.90;;;;;;5093166;28;20075;-63
2023/03/10 01:23:19;;;;;;;2.90;0.43;;;11.60;99.90;;;;;;5093196;28;20017;-63
2023/03/10 01:25:45;;;;;;;1.05;0.50;;;11.60;99.90;;;;;;5076281;28;20020;-63
2023/03/10 01:28:11;;;;;;;4.47;0.60;;;11.60;99.90;;;;;;5093073;28;20021;-63
2023/03/10 01:30:37;;;;;;;0.32;0.30;;;11.60;99.90;;;;;;5093021;28;20085;-63
2023/03/10 01:33:02;;;;;;;6.38;0.82;;;11.50;99.90;;;;;;5077482;28;20031;-63
2023/03/10 01:35:29;;;;;;;1.85;0.40;;;11.40;99.90;;;;;;5077107;28;20032;-63
2023/03/10 01:37:55;;;;;;;1.30;0.40;;;11.30;99.90;;;;;;5093071;28;20032;-63
2023/03/10 01:40:21;;;;;;;2.05;0.40;;;11.30;99.90;;;;;;5076017;28;20052;-63
2023/03/10 01:42:46;;;;;;;1.98;0.57;;;11.20;99.90;;;;;;5077039;28;20060;-63
2023/03/10 01:45:15;;;;;;;1.50;0.60;;;11.20;99.90;;;;;;5077184;28;20024;-63
2023/03/10 01:47:42;;;;;;;1.45;0.40;;;11.10;99.90;;;;;;5077014;28;20099;-63
2023/03/10 01:50:12;;;;;;;0.93;0.40;;;11.00;99.90;;;;;;5092772;28;20029;-63
2023/03/10 01:52:39;;;;;;;2.08;0.57;;;11.00;99.90;;;;;;5076007;28;20033;-63
2023/03/10 01:55:12;;;;;;;1.05;0.40;;;11.00;99.90;;;;;;5092763;28;20118;-63
2023/03/10 01:57:50;;;;;;;2.28;0.43;;;10.90;99.90;;;;;;5076785;28;20115;-63
2023/03/10 02:00:17;;;;;;;1.50;0.60;;;10.90;99.90;;;;;;5092827;28;20025;-63
2023/03/10 02:03:06;;;;;;;3.53;0.55;;;10.80;99.90;;;;;;5093248;28;20017;-63
2023/03/10 02:05:34;;;;;;;1.15;0.60;;;10.80;99.90;;;;;;5056470;28;20120;-63
2023/03/10 02:08:00;;;;;;;3.50;1.67;;;10.70;99.90;;;;;;5077265;28;20031;-63
2023/03/10 02:10:26;;;;;;;1.05;0.45;;;10.70;99.90;;;;;;5075684;28;20025;-63
2023/03/10 02:12:51;;;;;;;1.63;0.82;;;10.70;99.90;;;;;;5093176;28;20021;-63
2023/03/10 02:15:17;;;;;;;1.42;0.70;;;10.60;99.90;;;;;;5092569;28;20029;-63
2023/03/10 02:17:43;;;;;;;0.93;0.57;;;10.50;99.90;;;;;;5092923;28;20020;-63
2023/03/10 02:20:20;;;;;;;1.65;0.40;;;10.50;99.90;;;;;;5076860;28;20104;-63
2023/03/10 02:22:47;;;;;;;0.98;0.52;;;10.40;99.90;;;;;;5095192;28;20035;-63
2023/03/10 02:25:34;;;;;;;1.58;0.60;;;10.40;99.90;;;;;;5096794;28;20025;-63
2023/03/10 02:28:00;;;;;;;2.90;0.80;;;10.40;99.90;;;;;;5080287;28;20027;-63
2023/03/10 02:30:32;;;;;;;1.80;0.68;;;10.30;99.90;;;;;;5079545;28;20028;-63
2023/03/10 02:33:02;;;;;;;4.72;1.00;;;10.30;99.90;;;;;;5096242;28;20024;-63
2023/03/10 02:35:28;;;;;;;5.10;1.00;;;10.20;99.90;;;;;;5097069;28;20031;-64
2023/03/10 02:37:54;;;;;;;2.65;0.80;;;10.20;99.90;;;;;;5096490;28;20024;-64
2023/03/10 02:40:39;;;;;;;1.90;0.70;;;10.20;99.90;;;;;;5096794;28;20025;-63
2023/03/10 02:43:22;;;;;;;0.98;0.63;;;10.20;99.90;;;;;;5079611;28;20021;-63
2023/03/10 02:45:49;;;;;;;4.80;0.90;;;10.20;99.90;;;;;;5079189;28;20115;-63
2023/03/10 02:48:22;;;;;;;1.48;0.77;;;10.20;99.90;;;;;;5096793;28;20020;-63
2023/03/10 02:50:48;;;;;;;1.65;0.50;;;10.20;99.90;;;;;;5079268;28;20021;-63
2023/03/10 02:53:20;;;;;;;2.92;0.65;;;10.20;99.90;;;;;;5080103;28;20059;-63
2023/03/10 02:55:46;;;;;;;1.63;0.82;;;10.10;99.90;;;;;;5095937;28;20063;-63
2023/03/10 02:58:12;;;;;;;0.73;0.47;;;10.10;99.90;;;;;;5079783;28;20037;-63
2023/03/10 03:00:39;;;;;;;0.90;0.70;;;10.20;99.90;;;;;;5095666;28;20037;-63
2023/03/10 03:03:06;;;;;;;2.67;0.75;;;10.20;99.90;;;;;;5096036;28;20111;-63
2023/03/10 03:05:31;;;;;;;2.55;0.60;;;10.10;99.90;;;;;;5079673;28;20074;-63
2023/03/10 03:07:58;;;;;;;3.25;1.13;;;10.10;99.90;;;;;;5079762;28;20067;-63
2023/03/10 03:10:24;;;;;;;1.70;0.75;;;10.10;99.90;;;;;;5095556;28;20024;-63
2023/03/10 03:12:50;;;;;;;2.47;0.70;;;10.20;99.90;;;;;;5095413;28;20036;-63
2023/03/10 03:15:17;;;;;;;1.42;0.73;;;10.20;99.90;;;;;;5095516;28;20024;-64
2023/03/10 03:17:42;;;;;;;1.58;0.60;;;10.20;99.90;;;;;;5079438;28;20080;-63
2023/03/10 03:20:13;;;;;;;1.08;0.68;;;10.10;99.90;;;;;;5095631;28;20119;-63
2023/03/10 03:22:42;;;;;;;6.05;0.85;;;10.20;99.90;;;;;;5079458;28;20017;-63
2023/03/10 03:25:10;;;;;;;1.90;1.02;;;10.20;99.90;;;;;;5095282;28;20028;-64
2023/03/10 03:27:36;;;;;;;0.30;0.30;;;10.20;99.90;;;;;;5095770;28;20028;-63
2023/03/10 03:30:05;;;;;;;0.43;0.43;;;10.30;99.90;;;;;;5079153;28;20047;-63
2023/03/10 03:32:31;;;;;;;2.50;0.50;;;10.30;99.90;;;;;;5094635;28;20054;-63
2023/03/10 03:34:57;;;;;;;1.10;0.70;;;10.20;99.90;;;;;;5095212;28;20035;-63
2023/03/10 03:37:26;;;;;;;2.00;0.55;;;10.20;99.90;;;;;;5095312;28;20035;-63
2023/03/10 03:39:51;;;;;;;0.93;0.47;;;10.20;99.90;;;;;;5095093;28;20025;-63
2023/03/10 03:42:17;;;;;;;2.85;0.80;;;10.20;99.90;;;;;;5095147;28;20027;-63
2023/03/10 03:44:42;;;;;;;1.92;0.70;;;10.20;99.90;;;;;;5094976;28;20013;-63
2023/03/10 03:47:09;;;;;;;1.98;0.93;;;10.30;99.90;;;;;;5079248;28;20025;-63
2023/03/10 03:49:36;;;;;;;3.25;0.63;;;10.30;99.90;;;;;;5078221;28;20032;-63
2023/03/10 03:52:02;;;;;;;0.82;0.55;;;10.30;99.90;;;;;;5078583;28;20044;-65
2023/03/10 03:54:27;;;;;;;3.85;0.65;;;10.30;99.90;;;;;;5094655;28;20036;-66
2023/03/10 03:56:53;;;;;;;1.58;0.80;;;10.30;99.90;;;;;;5094704;28;20020;-66
2023/03/10 03:59:18;;;;;;;2.60;0.60;;;10.40;99.90;;;;;;5094655;28;20027;-66
2023/03/10 04:01:44;;;;;;;2.58;0.77;;;10.40;99.90;;;;;;5094787;28;20016;-66
2023/03/10 04:04:10;;;;;;;3.95;0.68;;;10.40;99.90;;;;;;5094766;28;20107;-66
2023/03/10 04:06:35;;;;;;;2.65;0.55;;;10.40;99.90;;;;;;5077579;28;20111;-66
2023/03/10 04:09:01;;;;;;;3.05;0.85;;;10.40;99.90;;;;;;5094376;28;20027;-66
2023/03/10 04:11:26;;;;;;;4.38;0.30;;;10.40;99.90;;;;;;5078368;28;20035;-66
2023/03/10 04:13:52;;;;;;;2.95;0.50;;;10.40;99.90;;;;;;5094432;28;20025;-66
2023/03/10 04:16:17;;;;;;;1.27;0.50;;;10.30;99.90;;;;;;5078223;28;20078;-66
2023/03/10 04:18:43;;;;;;;4.55;0.60;;;10.30;99.90;;;;;;5094231;28;20057;-66
2023/03/10 04:21:09;;;;;;;2.15;0.95;;;10.30;99.90;;;;;;5095316;28;20024;-66
2023/03/10 04:23:35;;;;;;;2.40;0.43;;;10.30;99.90;;;;;;5093983;28;20028;-66
2023/03/10 04:26:00;;;;;;;2.15;1.25;;;10.30;99.90;;;;;;5078024;28;20024;-66
2023/03/10 04:28:26;;;;;;;2.72;0.50;;;10.30;99.90;;;;;;5093989;28;20028;-66
2023/03/10 04:30:51;;;;;;;4.75;0.85;;;10.30;99.90;;;;;;5078019;28;20073;-66
2023/03/10 04:33:17;;;;;;;3.30;0.40;;;10.20;99.90;;;;;;5094110;28;20028;-66
2023/03/10 04:35:46;;;;;;;4.22;0.80;;;10.20;99.90;;;;;;5093923;28;20028;-66
2023/03/10 04:38:12;;;;;;;7.30;0.82;;;10.20;99.90;;;;;;5077911;28;20028;-66
2023/03/10 04:40:38;;;;;;;2.35;0.70;;;10.30;99.90;;;;;;5093665;28;20043;-66
2023/03/10 04:43:03;;;;;;;2.58;0.80;;;10.30;99.90;;;;;;5076934;28;20111;-66
2023/03/10 04:45:29;;;;;;;5.72;0.80;;;10.30;99.90;;;;;;5093201;28;20116;-67
2023/03/10 04:47:55;;;;;;;4.47;0.55;;;10.30;99.90;;;;;;5093753;28;20088;-66
2023/03/10 04:50:20;;;;;;;0.95;0.30;;;10.30;99.90;;;;;;5093884;28;20025;-66
2023/03/10 04:52:48;;;;;;;1.55;0.30;;;10.30;99.90;;;;;;5093946;28;20037;-67
2023/03/10 04:55:14;;;;;;;2.22;0.30;;;10.30;99.90;;;;;;5093585;28;20024;-67
2023/03/10 04:57:40;;;;;;;4.25;0.75;;;10.30;99.90;;;;;;5093599;28;20058;-66
2023/03/10 05:00:07;;;;;;;0.55;0.32;;;10.30;99.90;;;;;;5093528;28;20025;-66
2023/03/10 05:02:34;;;;;;;1.20;0.68;;;10.30;99.90;;;;;;5093399;28;20028;-66
2023/03/10 05:05:02;;;;;;;6.00;0.90;;;10.40;99.90;;;;;;5077692;28;20024;-66
2023/03/10 05:07:28;;;;;;;2.33;0.80;;;10.40;99.90;;;;;;5094022;28;20115;-66
2023/03/10 05:09:53;;;;;;;3.65;0.68;;;10.40;99.90;;;;;;5077662;28;20114;-67
2023/03/10 05:12:19;;;;;;;0.95;0.40;;;10.40;99.90;;;;;;5076357;28;20035;-67
2023/03/10 05:14:45;;;;;;;0.88;0.55;;;10.40;99.90;;;;;;5093865;28;20117;-67
2023/03/10 05:17:10;;;;;;;4.32;0.40;;;10.50;99.90;;;;;;5077578;28;20020;-66
2023/03/10 05:19:36;;;;;;;2.88;0.52;;;10.50;99.90;;;;;;5093152;28;20032;-66
2023/03/10 05:22:04;;;;;;;5.60;0.68;;;10.50;99.90;;;;;;5077540;28;20020;-67
2023/03/10 05:24:30;;;;;;;1.77;0.60;;;10.50;99.90;;;;;;5093383;28;20025;-67
2023/03/10 05:26:56;;;;;;;2.58;0.50;;;10.40;99.90;;;;;;5076406;28;20046;-67
2023/03/10 05:29:21;;;;;;;1.05;0.60;;;10.50;99.90;;;;;;5093033;28;20024;-66
2023/03/10 05:31:47;;;;;;;2.90;0.60;;;10.50;99.90;;;;;;5093803;28;20040;-66
2023/03/10 05:34:13;;;;;;;2.50;0.95;;;10.50;99.90;;;;;;5077114;28;20017;-66
2023/03/10 05:36:39;;;;;;;2.80;0.57;;;10.50;99.90;;;;;;5077104;28;20050;-66
2023/03/10 05:39:05;;;;;;;2.00;0.80;;;10.40;99.90;;;;;;5093326;28;20044;-66
2023/03/10 05:41:31;;;;;;;2.67;0.80;;;10.40;99.90;;;;;;5076801;28;20121;-66
2023/03/10 05:43:57;;;;;;;3.13;0.77;;;10.50;99.90;;;;;;5092954;28;20119;-66
2023/03/10 05:46:23;;;;;;;1.85;0.90;;;10.50;99.90;;;;;;5092867;28;20052;-66
2023/03/10 05:48:49;;;;;;;5.78;0.75;;;10.40;99.90;;;;;;5092762;28;20119;-66
2023/03/10 05:51:14;;;;;;;2.25;0.70;;;10.40;99.90;;;;;;5092793;28;20028;-67
2023/03/10 05:53:40;;;;;;;3.10;0.90;;;10.50;99.90;;;;;;5076780;28;20067;-66
2023/03/10 05:56:08;;;;;;;4.18;0.70;;;10.60;99.90;;;;;;5078243;28;20024;-66
2023/03/10 05:58:34;;;;;;;2.83;0.95;;;10.60;99.90;;;;;;5081358;28;20027;-66
2023/03/10 06:01:00;;;;;;;6.10;0.82;;;10.60;99.90;;;;;;5097620;28;20024;-66
2023/03/10 06:03:27;;;;;;;3.60;1.17;;;10.70;99.90;;;;;;5096959;28;20085;-66
2023/03/10 06:05:53;;;;;;;4.43;0.60;;;10.60;99.90;;;;;;5080176;28;20031;-66
2023/03/10 06:08:18;;;;;;;6.10;0.80;;;10.70;99.90;;;;;;5079942;28;20020;-66
2023/03/10 06:10:44;;;;;;;4.97;0.90;;;10.70;99.90;;;;;;5097153;28;20077;-66
2023/03/10 06:13:10;;;;;;;3.10;0.85;;;10.70;99.90;;;;;;5096972;28;20029;-66
2023/03/10 06:15:35;;;;;;;3.33;1.00;;;10.50;99.90;;;;;;5080788;28;20078;-66
2023/03/10 06:18:01;;;;;;;7.20;0.88;;;10.50;99.90;;;;;;5081122;28;20027;-66
2023/03/10 06:20:26;;;;;;;5.15;1.13;;;10.50;99.90;;;;;;5080802;28;20101;-66
2023/03/10 06:22:52;;;;;;;1.88;0.70;;;10.50;99.90;;;;;;5079689;28;20027;-66
2023/03/10 06:25:18;;;;;;;3.65;0.98;;;10.50;99.90;;;;;;5096392;28;20074;-66
2023/03/10 06:27:44;;;;;;;2.92;1.02;;;10.50;99.90;;;;;;5081020;28;20078;-66
2023/03/10 06:30:10;;;;;;;1.05;0.77;;;10.50;99.90;;;;;;5096366;28;20020;-66
2023/03/10 06:32:37;;;;;;;2.10;1.08;;;10.50;99.90;;;;;;5080186;28;20103;-66
2023/03/10 06:35:03;;;;;;;3.75;0.95;;;10.40;99.90;;;;;;5080382;28;20028;-66
2023/03/10 06:37:28;;;;;;;1.40;0.80;;;10.40;99.90;;;;;;5080792;28;20029;-66
2023/03/10 06:39:54;;;;;;;3.03;0.70;;;10.40;99.90;;;;;;5097035;28;20038;-66
2023/03/10 06:42:19;;;;;;;3.25;0.80;;;10.50;99.90;;;;;;5096097;28;20025;-66
2023/03/10 06:44:45;;;;;;;4.55;1.20;;;10.50;99.90;;;;;;5079120;28;20107;-66
2023/03/10 06:47:10;;;;;;;2.17;0.73;;;10.60;99.90;;;;;;5096402;28;20046;-66
2023/03/10 06:49:36;;;;;;;4.13;1.02;;;10.60;99.90;;;;;;5095899;28;20033;-66
2023/03/10 06:52:01;;;;;;;4.03;0.95;;;10.60;99.90;;;;;;5080336;28;20047;-66
2023/03/10 06:54:27;;;;;;;8.38;2.13;;;10.70;99.90;;;;;;5080327;28;20032;-66
2023/03/10 06:56:52;;;;;;;1.92;0.88;;;10.60;99.90;;;;;;5095989;28;20029;-66
2023/03/10 06:59:18;;;;;;;1.95;1.38;;;10.70;99.90;;;;;;5080249;28;20157;-66
2023/03/10 07:01:43;;;;;;;2.80;0.98;;;10.70;99.90;;;;;;5095922;28;20052;-66
2023/03/10 07:04:11;;;;;;;2.22;0.93;;;10.70;99.90;;;;;;5080348;28;20043;-66
2023/03/10 07:06:36;;;;;;;5.18;0.98;;;10.60;99.90;;;;;;5096598;28;20024;-66
2023/03/10 07:09:03;;;;;;;5.43;0.88;;;10.60;99.90;;;;;;5077918;28;20026;-66
2023/03/10 07:11:29;;;;;;;4.00;1.50;;;10.60;99.90;;;;;;5095541;28;20024;-66
2023/03/10 07:13:55;;;;;;;6.80;0.80;;;10.70;99.90;;;;;;5079804;28;20025;-66
2023/03/10 07:16:21;;;;;;;4.38;1.33;;;10.70;99.90;;;;;;5079884;28;20032;-66
2023/03/10 07:18:47;;;;;;;6.53;0.93;;;10.60;99.90;;;;;;5079537;28;20108;-67
2023/03/10 07:21:17;;;;;;;1.60;0.70;;;10.70;99.90;;;;;;5079390;28;20111;-66
2023/03/10 07:23:43;;;;;;;3.90;0.73;;;10.70;99.90;;;;;;5095460;28;20020;-66
2023/03/10 07:26:09;;;;;;;0.82;0.63;;;10.80;99.90;;;;;;5095358;28;20021;-67
2023/03/10 07:28:36;;;;;;;3.92;0.90;;;10.80;99.90;;;;;;5095333;28;20020;-66
2023/03/10 07:31:03;;;;;;;2.47;0.80;;;10.90;99.90;;;;;;5095248;28;20025;-66
2023/03/10 07:33:29;;;;;;;2.67;1.35;;;11.00;99.90;;;;;;5095130;28;20058;-66
2023/03/10 07:35:54;;;;;;;3.40;0.70;;;11.10;99.90;;;;;;5079445;28;20075;-66
2023/03/10 07:38:20;;;;;;;2.78;0.90;;;11.10;99.90;;;;;;5079435;28;20040;-66
2023/03/10 07:40:46;;;;;;;3.35;1.10;;;11.10;99.90;;;;;;5077949;28;20078;-66
2023/03/10 07:43:11;;;;;;;3.25;0.82;;;11.00;99.90;;;;;;5095127;28;20031;-66
2023/03/10 07:45:37;;;;;;;5.63;0.75;;;11.00;99.90;;;;;;5095988;28;20016;-65
2023/03/10 07:48:03;;;;;;;5.28;1.48;;;11.00;99.90;;;;;;5095066;28;20023;-66
2023/03/10 07:50:28;;;;;;;5.55;0.88;;;11.10;99.90;;;;;;5095078;28;20054;-66
2023/03/10 07:52:55;;;;;;;6.20;1.15;;;11.20;99.90;;;;;;5094795;28;20032;-66
2023/03/10 07:55:21;;;;;;;6.57;0.90;;;11.30;99.90;;;;;;5079579;28;20020;-66
2023/03/10 07:57:47;;;;;;;5.28;0.90;;;11.30;99.90;;;;;;5079004;28;20036;-66
2023/03/10 08:00:14;;;;;;;2.55;0.90;;;11.40;99.90;;;;;;5094649;28;20025;-66
2023/03/10 08:02:39;;;;;;;4.15;0.70;;;11.50;99.90;;;;;;5078645;28;20076;-66
2023/03/10 08:05:06;;;;;;;3.05;0.70;;;11.50;99.90;;;;;;5095182;28;20101;-66
2023/03/10 08:07:31;;;;;;;3.92;1.23;;;11.60;99.90;;;;;;5094927;28;20070;-65
2023/03/10 08:09:57;;;;;;;6.30;0.90;;;11.70;99.90;;;;;;5094369;28;20025;-65
2023/03/10 08:12:23;;;;;;;3.72;0.65;;;11.80;99.90;;;;;;5078313;28;20032;-66
2023/03/10 08:14:50;;;;;;;2.78;0.70;;;11.80;99.90;;;;;;5094409;28;20036;-65
2023/03/10 08:17:16;;;;;;;3.08;1.20;;;11.80;99.90;;;;;;5095161;28;20050;-65
2023/03/10 08:19:41;;;;;;;5.05;0.82;;;11.80;99.90;;;;;;5076446;28;20046;-65
2023/03/10 08:22:08;;;;;;;5.00;0.88;;;11.90;99.90;;;;;;5078400;28;20028;-66
2023/03/10 08:24:35;;;;;;;2.55;0.90;;;11.90;99.90;;;;;;5078182;28;20043;-65
2023/03/10 08:27:00;;;;;;;2.88;0.98;;;11.90;99.90;;;;;;5094170;28;20085;-65
2023/03/10 08:29:26;;;;;;;6.82;1.20;;;11.90;99.90;;;;;;5095214;28;20016;-65
2023/03/10 08:31:51;;;;;;;3.83;0.70;;;11.90;99.90;;;;;;5094050;28;20024;-67
2023/03/10 08:34:17;;;;;;;7.22;1.00;;;11.90;99.90;;;;;;5094373;28;20017;-65
2023/03/10 08:36:43;;;;;;;1.60;0.88;;;11.90;99.90;;;;;;5093798;28;20024;-65
2023/03/10 08:39:11;;;;;;;1.65;0.50;;;11.80;99.90;;;;;;5094233;28;20021;-65
2023/03/10 08:41:47;;;;;;;1.13;0.68;;;11.90;99.90;;;;;;5077689;28;20032;-65
2023/03/10 08:44:16;;;;;;;3.22;0.40;;;11.90;99.90;;;;;;5078160;28;20078;-66
2023/03/10 08:46:46;;;;;;;1.73;0.55;;;11.80;99.90;;;;;;5093831;28;20016;-66
2023/03/10 08:49:14;;;;;;;0.75;0.30;;;11.90;99.90;;;;;;5077976;28;20027;-65
2023/03/10 08:51:40;;;;;;;1.48;0.32;;;11.90;99.90;;;;;;5093651;28;20055;-65
2023/03/10 08:54:06;;;;;;;1.90;0.50;;;11.90;99.90;;;;;;5077624;28;20032;-66
2023/03/10 08:56:32;;;;;;;3.92;0.45;;;12.00;99.90;;;;;;5077647;28;20024;-66
2023/03/10 08:58:59;;;;;;;3.28;1.08;;;11.90;99.90;;;;;;5077608;28;20031;-66
2023/03/10 09:01:33;;;;;;;1.05;0.40;;;11.90;99.90;;;;;;5077583;28;20048;-66
2023/03/10 09:04:00;;;;;;;3.65;1.50;;;12.00;99.90;;;;;;5077800;28;20021;-65
2023/03/10 09:06:26;;;;;;;2.22;0.68;;;12.00;99.90;;;;;;5077426;28;20024;-65
2023/03/10 09:08:52;;;;;;;7.05;1.13;;;12.00;99.90;;;;;;5093377;28;20025;-65
2023/03/10 09:11:27;;;;;;;2.13;0.70;;;12.00;99.90;;;;;;5093326;28;20028;-66
2023/03/10 09:13:53;;;;;;;7.18;0.95;;;12.00;99.90;;;;;;5077340;28;20052;-66
2023/03/10 09:16:19;;;;;;;1.42;0.70;;;12.00;99.90;;;;;;5094032;28;20020;-65
2023/03/10 09:18:45;;;;;;;3.25;0.70;;;12.00;99.90;;;;;;5077459;28;20067;-66
2023/03/10 09:21:13;;;;;;;2.42;0.35;;;12.00;99.90;;;;;;5077373;28;20029;-66
2023/03/10 09:23:42;;;;;;;2.78;0.50;;;12.00;99.90;;;;;;5077448;28;20043;-66
2023/03/10 09:26:07;;;;;;;0.93;0.43;;;11.90;99.90;;;;;;5093677;28;20108;-66
2023/03/10 09:28:33;;;;;;;2.40;0.65;;;11.90;99.90;;;;;;5093120;28;20059;-66
2023/03/10 09:30:58;;;;;;;3.33;0.65;;;11.90;99.90;;;;;;5092710;28;20111;-66
2023/03/10 09:33:24;;;;;;;2.63;0.60;;;11.90;99.90;;;;;;5092986;28;20024;-66
2023/03/10 09:35:50;;;;;;;4.05;0.70;;;11.90;99.90;;;;;;5076242;28;20025;-66
2023/03/10 09:38:16;;;;;;;3.13;0.52;;;11.90;99.90;;;;;;5093015;28;20035;-66
2023/03/10 09:40:47;;;;;;;1.75;0.57;;;12.00;99.90;;;;;;5077239;28;20025;-66
2023/03/10 09:43:18;;;;;;;2.25;0.60;;;12.10;99.90;;;;;;5077102;28;20049;-66
2023/03/10 09:46:24;;;;;;;3.88;0.90;;;12.10;99.90;;;;;;5075927;28;20052;-66
2023/03/10 09:48:58;;;;;;;2.78;0.50;;;12.20;99.90;;;;;;5038767;28;20025;-66
2023/03/10 09:51:27;;;;;;;1.55;0.60;;;12.20;99.90;;;;;;5038459;28;20036;-67
2023/03/10 09:54:14;;;;;;;3.47;1.75;;;12.20;99.90;;;;;;5096481;22;20043;-69
2023/03/10 09:56:40;;;;;;;4.10;0.52;;;12.10;99.90;;;;;;5075978;28;20053;-69
2023/03/10 09:59:29;;;;;;;3.03;0.60;;;12.10;99.90;;;;;;5075795;28;20082;-69
2023/03/10 10:02:00;;;;;;;1.88;0.65;;;12.10;99.90;;;;;;5076911;28;20115;-68
2023/03/10 10:04:38;;;;;;;4.25;0.60;;;12.20;99.90;;;;;;5076856;28;20048;-67
2023/03/10 10:07:14;;;;;;;3.80;0.63;;;12.30;99.90;;;;;;5076836;28;20029;-68
2023/03/10 10:09:47;;;;;;;4.13;0.70;;;12.30;99.90;;;;;;5076806;28;20020;-67
2023/03/10 10:12:15;;;;;;;8.82;0.98;;;12.30;99.90;;;;;;5075880;28;20025;-68
2023/03/10 10:14:40;;;;;;;3.72;0.50;;;12.30;99.90;;;;;;5076961;28;20099;-67
2023/03/10 10:17:37;;;;;;;3.10;0.77;;;12.30;99.90;;;;;;5076594;28;20103;-67
2023/03/10 10:20:15;;;;;;;2.75;0.77;;;12.50;99.90;;;;;;5075809;28;20115;-67
2023/03/10 10:22:43;;;;;;;4.85;0.75;;;12.60;99.90;;;;;;5075622;28;20112;-67
2023/03/10 10:25:11;;;;;;;4.15;0.77;;;12.60;99.90;;;;;;5076839;28;20016;-67
2023/03/10 10:27:39;;;;;;;5.28;0.60;;;12.70;99.90;;;;;;5076501;28;20032;-67
2023/03/10 10:30:26;;;;;;;7.35;0.75;;;12.60;99.90;;;;;;5076511;28;20114;-67
2023/03/10 10:33:09;;;;;;;5.50;1.13;;;12.70;99.90;;;;;;5075761;28;20025;-67
2023/03/10 10:35:56;;;;;;;6.95;1.23;;;12.80;99.90;;;;;;5077007;28;20021;-68
2023/03/10 10:38:28;;;;;;;5.35;1.58;;;13.00;99.90;;;;;;5076271;28;20032;-67
2023/03/10 10:41:14;;;;;;;5.57;1.40;;;13.20;99.90;;;;;;5075524;28;20052;-68
2023/03/10 10:43:42;;;;;;;4.03;0.80;;;13.20;99.90;;;;;;5078241;28;20074;-68
2023/03/10 10:46:09;;;;;;;3.47;0.63;;;13.20;99.90;;;;;;5079519;28;20031;-68
2023/03/10 10:48:41;;;;;;;3.35;0.80;;;13.30;99.90;;;;;;5079179;28;20017;-68
2023/03/10 10:51:29;;;;;;;3.63;0.60;;;13.30;99.90;;;;;;5080350;28;20048;-67
2023/03/10 10:53:56;;;;;;;6.15;0.93;;;13.30;99.90;;;;;;5080568;28;20059;-68
2023/03/10 10:56:23;;;;;;;4.22;0.75;;;13.20;99.90;;;;;;5080012;28;20063;-68
2023/03/10 10:59:33;;;;;;;3.47;0.60;;;13.20;99.90;;;;;;5079785;28;20112;-68
2023/03/10 11:02:21;;;;;;;4.63;1.08;;;13.30;99.90;;;;;;5041592;28;20064;-68
2023/03/10 11:04:47;;;;;;;3.70;0.60;;;13.60;99.90;;;;;;5058690;28;20025;-68
2023/03/10 11:07:26;;;;;;;0.93;0.50;;;13.50;99.90;;;;;;5058374;28;20040;-67
2023/03/10 11:09:55;;;;;;;3.75;1.05;;;13.50;99.90;;;;;;5041920;28;20079;-68
2023/03/10 11:12:30;;;;;;;5.70;1.60;;;13.70;99.90;;;;;;5041478;28;20049;-67
2023/03/10 11:15:12;;;;;;;4.25;1.00;;;13.80;99.90;;;;;;5058404;28;20111;-67
2023/03/10 11:18:09;;;;;;;4.03;0.90;;;13.50;99.90;;;;;;5058023;28;20025;-67
2023/03/10 11:20:56;;;;;;;2.88;0.90;;;13.10;99.90;;;;;;5041794;28;20087;-67
2023/03/10 11:23:42;;;;;;;7.32;1.02;;;12.70;99.90;;;;;;5058008;28;20033;-67
2023/03/10 11:26:11;;;;;;;3.60;0.60;;;12.50;99.90;;;;;;5041381;28;20029;-67
2023/03/10 11:28:54;;;;;;;2.40;0.80;;;12.60;99.90;;;;;;5057805;28;20071;-67
2023/03/10 11:31:25;;;;;;;4.22;0.50;;;12.80;99.90;;;;;;5041753;28;20025;-67
2023/03/10 11:34:12;;;;;;;2.65;0.60;;;13.00;99.90;;;;;;5078317;28;20036;-67
2023/03/10 11:37:13;;;;;;;1.83;0.80;;;13.10;99.90;;;;;;5078429;28;20028;-67
2023/03/10 11:40:06;;;;;;;3.97;0.70;;;13.30;99.90;;;;;;5079357;28;20024;-67
2023/03/10 11:42:47;;;;;;;3.58;0.75;;;13.40;99.90;;;;;;5072886;28;20032;-67
2023/03/10 11:45:30;;;;;;;4.25;0.82;;;13.50;99.90;;;;;;5078196;28;20115;-68
2023/03/10 11:48:03;;;;;;;6.88;0.95;;;13.70;99.90;;;;;;5078194;28;20024;-68
2023/03/10 11:50:37;;;;;;;6.13;0.55;;;14.00;99.90;;;;;;5078321;28;20048;-68
2023/03/10 11:53:14;;;;;;;4.72;0.90;;;14.60;99.90;;;;;;5079145;28;20083;-68
2023/03/10 11:55:41;;;;;;;5.25;0.73;;;15.00;99.90;;;;;;5077879;28;20028;-67
2023/03/10 11:58:22;;;;;;;2.60;0.50;;;14.80;99.90;;;;;;5078488;28;20024;-67
2023/03/10 12:00:51;;;;;;;2.53;0.80;;;15.00;99.90;;;;;;5078362;28;20062;-68
2023/03/10 12:03:35;;;;;;;2.08;0.45;;;15.40;99.90;;;;;;5077618;28;20028;-67
2023/03/10 12:06:02;;;;;;;2.35;0.60;;;15.50;99.90;;;;;;5077760;28;20016;-67
2023/03/10 12:08:33;;;;;;;2.80;0.85;;;15.30;99.90;;;;;;5077592;28;20020;-67
2023/03/10 12:11:01;;;;;;;2.75;0.45;;;14.90;99.90;;;;;;5078618;28;20044;-67
2023/03/10 12:13:35;;;;;;;1.10;0.43;;;14.50;99.90;;;;;;5077466;28;20036;-67
2023/03/10 12:16:08;;;;;;;3.25;0.50;;;14.30;99.90;;;;;;5078443;28;20039;-67
2023/03/10 12:18:33;;;;;;;1.00;0.20;;;14.30;99.90;;;;;;5077431;28;20025;-68
2023/03/10 12:21:20;;;;;;;1.33;0.40;;;14.80;99.90;;;;;;5077355;28;20029;-68
2023/03/10 12:24:10;;;;;;;3.42;0.40;;;15.50;99.90;;;;;;5078194;28;20028;-68
2023/03/10 12:26:43;;;;;;;2.10;0.55;;;15.80;99.90;;;;;;5078191;28;20024;-68
2023/03/10 12:29:23;;;;;;;1.83;0.30;;;16.00;99.90;;;;;;5077305;28;20020;-68
2023/03/10 12:31:53;;;;;;;2.00;0.50;;;16.10;99.90;;;;;;5077999;28;20024;-68
2023/03/10 12:34:28;;;;;;;0.95;0.25;;;15.80;99.90;;;;;;5078930;28;20028;-68
2023/03/10 12:37:08;;;;;;;0.85;0.30;;;15.40;99.90;;;;;;5077964;28;20111;-68
2023/03/10 12:39:41;;;;;;;1.40;0.85;;;15.40;99.90;;;;;;5077933;28;20021;-68
2023/03/10 12:42:31;;;;;;;0.73;0.20;;;15.30;99.90;;;;;;5077977;28;20020;-67
2023/03/10 12:45:24;;;;;;;1.25;0.32;;;15.00;99.90;;;;;;5077786;28;20138;-67
2023/03/10 12:48:09;;;;;;;1.65;0.30;;;14.50;99.90;;;;;;5078026;28;20050;-67
2023/03/10 12:50:51;;;;;;;3.03;0.25;;;14.50;99.90;;;;;;5076930;28;20021;-67
2023/03/10 12:53:37;;;;;;;1.10;0.60;;;14.20;99.90;;;;;;5077675;28;20029;-67
2023/03/10 12:56:19;;;;;;;0.75;0.40;;;14.10;99.90;;;;;;5077908;28;20086;-67
2023/03/10 12:59:04;;;;;;;1.73;0.32;;;14.00;99.90;;;;;;5076726;28;20035;-67